Time;durP1;ratioP1;P1;durP2;ratioP2;P2;SDS_P1;SDS_P2;PMS_P1;PMS_P2;Temp;Humidity;BMP_temperature;BMP_pressure;BME280_temperature;BME280_humidity;BME280_pressure;Samples;Min_cycle;Max_cycle;Signal;HPM_P1;HPM_P2
2021/07/20 00:00:43;;;;;;;;;;;;;;;;;;1460797;40;20024;-42
2021/07/20 00:01:44;;;;;;;;;;;;;;;;;;1466031;40;20062;-40
2021/07/20 00:02:48;;;;;;;;;;;;;;;;;;1465923;40;19984;-42
2021/07/20 00:03:49;;;;;;;;;;;;;;;;;;1462227;40;20486;-43
2021/07/20 00:04:49;;;;;;;;;;;;;;;;;;1457959;40;20054;-41
2021/07/20 00:05:50;;;;;;;;;;;;;;;;;;1465874;40;20148;-45
2021/07/20 00:06:50;;;;;;;;;;;;;;;;;;1457858;40;20032;-41
2021/07/20 00:07:51;;;;;;;;;;;;;;;;;;1457611;40;19953;-42
2021/07/20 00:08:51;;;;;;;;;;;;;;;;;;1465684;40;20246;-42
2021/07/20 00:09:51;;;;;;;;;;;;;;;;;;1459611;40;20294;-39
2021/07/20 00:10:54;;;;;;;;;;;;;;;;;;1465669;40;19989;-42
2021/07/20 00:11:54;;;;;;;;;;;;;;;;;;1470157;40;19933;-44
2021/07/20 00:12:55;;;;;;;;;;;;;;;;;;1468411;40;20056;-39
2021/07/20 00:13:55;;;;;;;;;;;;;;;;;;1466064;40;20305;-40
2021/07/20 00:14:56;;;;;;;;;;;;;;;;;;1465771;40;19964;-44
2021/07/20 00:15:57;;;;;;;;;;;;;;;;;;1467033;40;19945;-41
2021/07/20 00:16:58;;;;;;;;;;;;;;;;;;1469923;40;20026;-42
2021/07/20 00:17:59;;;;;;;;;;;;;;;;;;1470169;40;20189;-42
2021/07/20 00:19:00;;;;;;;;;;;;;;;;;;1469759;40;19941;-40
2021/07/20 00:20:01;;;;;;;;;;;;;;;;;;1466009;40;19988;-42
2021/07/20 00:21:03;;;;;;;;;;;;;;;;;;1464009;40;20417;-42
2021/07/20 00:22:03;;;;;;;;;;;;;;;;;;1468593;40;20284;-42
2021/07/20 00:23:04;;;;;;;;;;;;;;;;;;1461660;40;19977;-41
2021/07/20 00:24:05;;;;;;;;;;;;;;;;;;1461836;40;19937;-40
2021/07/20 00:25:06;;;;;;;;;;;;;;;;;;1468698;40;20273;-41
2021/07/20 00:26:08;;;;;;;;;;;;;;;;;;1458796;40;19973;-42
2021/07/20 00:27:08;;;;;;;;;;;;;;;;;;1453382;40;19958;-42
2021/07/20 00:28:09;;;;;;;;;;;;;;;;;;1456963;40;20387;-40
2021/07/20 00:29:09;;;;;;;;;;;;;;;;;;1462284;40;19953;-41
2021/07/20 00:30:10;;;;;;;;;;;;;;;;;;1464419;40;19934;-39
2021/07/20 00:31:11;;;;;;;;;;;;;;;;;;1466120;40;20312;-40
2021/07/20 00:32:11;;;;;;;;;;;;;;;;;;1466530;40;20196;-40
2021/07/20 00:33:11;;;;;;;;;;;;;;;;;;1473933;40;20339;-43
2021/07/20 00:34:12;;;;;;;;;;;;;;;;;;1473266;40;19940;-41
2021/07/20 00:35:12;;;;;;;;;;;;;;;;;;1465188;40;20089;-45
2021/07/20 00:36:13;;;;;;;;;;;;;;;;;;1461878;40;20098;-43
2021/07/20 00:37:13;;;;;;;;;;;;;;;;;;1470605;40;19939;-41
2021/07/20 00:38:15;;;;;;;;;;;;;;;;;;1461721;40;20036;-43
2021/07/20 00:39:15;;;;;;;;;;;;;;;;;;1462087;40;19957;-42
2021/07/20 00:40:16;;;;;;;;;;;;;;;;;;1469427;40;19939;-40
2021/07/20 00:41:17;;;;;;;;;;;;;;;;;;1469946;40;20277;-46
2021/07/20 00:42:17;;;;;;;;;;;;;;;;;;1473347;40;19977;-43
2021/07/20 00:43:17;;;;;;;;;;;;;;;;;;1474020;40;20030;-42
2021/07/20 00:44:19;;;;;;;;;;;;;;;;;;1469348;40;19936;-41
2021/07/20 00:45:20;;;;;;;;;;;;;;;;;;1467030;40;21627;-43
2021/07/20 00:46:20;;;;;;;;;;;;;;;;;;1468339;40;20041;-42
2021/07/20 00:47:20;;;;;;;;;;;;;;;;;;1469613;40;19948;-41
2021/07/20 00:48:20;;;;;;;;;;;;;;;;;;1470361;40;20050;-48
2021/07/20 00:49:21;;;;;;;;;;;;;;;;;;1473825;40;20311;-42
2021/07/20 00:50:31;;;;;;;;;;;;;;;;;;1469300;40;19988;-39
2021/07/20 00:51:31;;;;;;;;;;;;;;;;;;1474301;40;19939;-41
2021/07/20 00:52:31;;;;;;;;;;;;;;;;;;1471125;40;20444;-45
2021/07/20 00:53:32;;;;;;;;;;;;;;;;;;1461881;40;20317;-42
2021/07/20 00:54:33;;;;;;;;;;;;;;;;;;1453614;40;20361;-42
2021/07/20 00:55:35;;;;;;;;;;;;;;;;;;1464565;40;19983;-41
2021/07/20 00:56:36;;;;;;;;;;;;;;;;;;1467062;40;19984;-40
2021/07/20 00:57:37;;;;;;;;;;;;;;;;;;1469708;40;19996;-40
2021/07/20 00:58:37;;;;;;;;;;;;;;;;;;1465701;40;19937;-41
2021/07/20 00:59:38;;;;;;;;;;;;;;;;;;1465790;40;19933;-45
2021/07/20 01:00:38;;;;;;;;;;;;;;;;;;1460503;40;20089;-40
2021/07/20 01:01:39;;;;;;;;;;;;;;;;;;1470006;40;20018;-45
2021/07/20 01:02:39;;;;;;;;;;;;;;;;;;1469974;40;20433;-40
2021/07/20 01:03:39;;;;;;;;;;;;;;;;;;1457644;40;20308;-42
2021/07/20 01:04:40;;;;;;;;;;;;;;;;;;1461706;40;19964;-42
2021/07/20 01:05:40;;;;;;;;;;;;;;;;;;1470044;40;19959;-43
2021/07/20 01:06:41;;;;;;;;;;;;;;;;;;1470035;40;20541;-46
2021/07/20 01:07:44;;;;;;;;;;;;;;;;;;1469873;40;20181;-41
2021/07/20 01:08:44;;;;;;;;;;;;;;;;;;1466607;40;20046;-42
2021/07/20 01:09:46;;;;;;;;;;;;;;;;;;1469802;40;19937;-42
2021/07/20 01:10:47;;;;;;;;;;;;;;;;;;1469972;40;19937;-43
2021/07/20 01:11:47;;;;;;;;;;;;;;;;;;1465313;40;20178;-40
2021/07/20 01:12:48;;;;;;;;;;;;;;;;;;1459591;40;21070;-41
2021/07/20 01:13:49;;;;;;;;;;;;;;;;;;1465728;40;20030;-39
2021/07/20 01:14:50;;;;;;;;;;;;;;;;;;1465817;40;20197;-40
2021/07/20 01:15:51;;;;;;;;;;;;;;;;;;1465720;40;19977;-44
2021/07/20 01:16:51;;;;;;;;;;;;;;;;;;1457749;40;20115;-40
2021/07/20 01:17:56;;;;;;;;;;;;;;;;;;1449622;40;19997;-40
2021/07/20 01:18:56;;;;;;;;;;;;;;;;;;1455121;40;20073;-44
2021/07/20 01:19:56;;;;;;;;;;;;;;;;;;1462069;40;19934;-43
2021/07/20 01:20:57;;;;;;;;;;;;;;;;;;1463075;40;19941;-42
2021/07/20 01:21:59;;;;;;;;;;;;;;;;;;1457539;40;19978;-43
2021/07/20 01:23:05;;;;;;;;;;;;;;;;;;1457754;40;20238;-42
2021/07/20 01:24:06;;;;;;;;;;;;;;;;;;1465548;40;20105;-42
2021/07/20 01:25:10;;;;;;;;;;;;;;;;;;1465880;40;19933;-45
2021/07/20 01:26:11;;;;;;;;;;;;;;;;;;1465710;40;20382;-42
2021/07/20 01:27:11;;;;;;;;;;;;;;;;;;1457354;40;20198;-41
2021/07/20 01:28:17;;;;;;;;;;;;;;;;;;1457561;40;19946;-40
2021/07/20 01:29:18;;;;;;;;;;;;;;;;;;1465787;40;19945;-43
2021/07/20 01:30:19;;;;;;;;;;;;;;;;;;1470060;40;19941;-43
2021/07/20 01:31:25;;;;;;;;;;;;;;;;;;1464639;40;19973;-41
2021/07/20 01:32:25;;;;;;;;;;;;;;;;;;1464778;40;20067;-41
2021/07/20 01:33:27;;;;;;;;;;;;;;;;;;1468506;40;20017;-43
2021/07/20 01:34:28;;;;;;;;;;;;;;;;;;1461565;40;19933;-42
2021/07/20 01:35:30;;;;;;;;;;;;;;;;;;1455607;40;21379;-42
2021/07/20 01:36:31;;;;;;;;;;;;;;;;;;1460189;40;20175;-41
2021/07/20 01:37:33;;;;;;;;;;;;;;;;;;1465072;40;19948;-45
2021/07/20 01:38:34;;;;;;;;;;;;;;;;;;1457007;40;20209;-40
2021/07/20 01:39:35;;;;;;;;;;;;;;;;;;1456973;40;20512;-42
2021/07/20 01:40:37;;;;;;;;;;;;;;;;;;1460649;40;19996;-42
2021/07/20 01:41:38;;;;;;;;;;;;;;;;;;1448645;40;20276;-39
2021/07/20 01:42:42;;;;;;;;;;;;;;;;;;1452427;40;20219;-43
2021/07/20 01:43:47;;;;;;;;;;;;;;;;;;1459978;40;20056;-41
2021/07/20 01:44:48;;;;;;;;;;;;;;;;;;1455588;40;19987;-42
2021/07/20 01:45:49;;;;;;;;;;;;;;;;;;1457417;40;21296;-42
2021/07/20 01:46:51;;;;;;;;;;;;;;;;;;1464881;40;20093;-43
2021/07/20 01:47:52;;;;;;;;;;;;;;;;;;1469089;40;20030;-40
2021/07/20 01:48:53;;;;;;;;;;;;;;;;;;1469428;40;20022;-40
2021/07/20 01:49:57;;;;;;;;;;;;;;;;;;1464145;40;21538;-41
2021/07/20 01:50:57;;;;;;;;;;;;;;;;;;1468675;40;19933;-39
2021/07/20 01:51:58;;;;;;;;;;;;;;;;;;1469391;40;19944;-43
2021/07/20 01:52:59;;;;;;;;;;;;;;;;;;1469112;40;19948;-41
2021/07/20 01:54:00;;;;;;;;;;;;;;;;;;1468361;40;20237;-43
2021/07/20 01:55:00;;;;;;;;;;;;;;;;;;1469059;40;19936;-40
2021/07/20 01:56:02;;;;;;;;;;;;;;;;;;1465483;40;21055;-41
2021/07/20 01:57:02;;;;;;;;;;;;;;;;;;1465336;40;19937;-42
2021/07/20 01:58:04;;;;;;;;;;;;;;;;;;1468927;40;19933;-43
2021/07/20 01:59:04;;;;;;;;;;;;;;;;;;1468748;40;19937;-40
2021/07/20 02:00:15;;;;;;;;;;;;;;;;;;1465828;40;20160;-42
2021/07/20 02:01:21;;;;;;;;;;;;;;;;;;1461697;40;20275;-44
2021/07/20 02:02:30;;;;;;;;;;;;;;;;;;1461450;40;20164;-40
2021/07/20 02:08:24;;;;;;;;;;;;;;;;;;1462798;40;21301;-41
2021/07/20 02:08:50;;;;;;;;;;;;;;;;;;1466037;40;20202;-41
2021/07/20 02:09:51;;;;;;;;;;;;;;;;;;1470048;40;19988;-46
2021/07/20 02:13:07;;;;;;;;;;;;;;;;;;1474247;40;19944;-40
2021/07/20 02:14:10;;;;;;;;;;;;;;;;;;1477322;40;20018;-43
2021/07/20 02:15:11;;;;;;;;;;;;;;;;;;1475427;40;21177;-39
2021/07/20 02:16:13;;;;;;;;;;;;;;;;;;1477582;40;19958;-39
2021/07/20 02:17:14;;;;;;;;;;;;;;;;;;1477867;40;19933;-43
2021/07/20 02:18:14;;;;;;;;;;;;;;;;;;1469654;40;19952;-40
2021/07/20 02:19:21;;;;;;;;;;;;;;;;;;1474037;40;20303;-39
2021/07/20 02:20:26;;;;;;;;;;;;;;;;;;1477482;40;21407;-40
2021/07/20 02:21:27;;;;;;;;;;;;;;;;;;1475163;40;20358;-40
2021/07/20 02:22:28;;;;;;;;;;;;;;;;;;1473889;40;19979;-39
2021/07/20 02:23:32;;;;;;;;;;;;;;;;;;1474193;40;20009;-42
2021/07/20 02:24:34;;;;;;;;;;;;;;;;;;1466517;40;20091;-42
2021/07/20 02:25:35;;;;;;;;;;;;;;;;;;1465764;40;21312;-44
2021/07/20 02:26:36;;;;;;;;;;;;;;;;;;1473413;40;19972;-43
2021/07/20 02:27:36;;;;;;;;;;;;;;;;;;1473958;40;19947;-39
2021/07/20 02:28:37;;;;;;;;;;;;;;;;;;1469776;40;20478;-40
2021/07/20 02:29:38;;;;;;;;;;;;;;;;;;1466041;40;19969;-42
2021/07/20 02:30:39;;;;;;;;;;;;;;;;;;1474641;40;19936;-43
2021/07/20 02:31:40;;;;;;;;;;;;;;;;;;1462290;40;19937;-45
2021/07/20 02:32:42;;;;;;;;;;;;;;;;;;1469763;40;19957;-39
2021/07/20 02:33:43;;;;;;;;;;;;;;;;;;1469497;40;20419;-42
2021/07/20 02:34:43;;;;;;;;;;;;;;;;;;1470051;40;20034;-42
2021/07/20 02:35:44;;;;;;;;;;;;;;;;;;1473981;40;20335;-42
2021/07/20 02:36:45;;;;;;;;;;;;;;;;;;1474534;40;21643;-46
2021/07/20 02:37:47;;;;;;;;;;;;;;;;;;1479286;40;19936;-43
2021/07/20 02:38:47;;;;;;;;;;;;;;;;;;1479431;40;21460;-39
2021/07/20 02:39:48;;;;;;;;;;;;;;;;;;1474326;40;20044;-45
2021/07/20 02:40:50;;;;;;;;;;;;;;;;;;1474146;40;20061;-41
2021/07/20 02:41:52;;;;;;;;;;;;;;;;;;1474087;40;19932;-42
2021/07/20 02:42:55;;;;;;;;;;;;;;;;;;1474408;40;20035;-42
2021/07/20 02:43:56;;;;;;;;;;;;;;;;;;1474264;40;20224;-42
2021/07/20 02:44:58;;;;;;;;;;;;;;;;;;1467258;40;21122;-40
2021/07/20 02:45:58;;;;;;;;;;;;;;;;;;1471697;40;20207;-41
2021/07/20 02:47:00;;;;;;;;;;;;;;;;;;1473423;40;19940;-39
2021/07/20 02:48:00;;;;;;;;;;;;;;;;;;1476029;40;21547;-42
2021/07/20 02:49:01;;;;;;;;;;;;;;;;;;1474029;40;21022;-42
2021/07/20 02:50:04;;;;;;;;;;;;;;;;;;1474306;40;20033;-43
2021/07/20 02:51:05;;;;;;;;;;;;;;;;;;1466201;40;20297;-43
2021/07/20 02:52:06;;;;;;;;;;;;;;;;;;1472432;40;19932;-43
2021/07/20 02:53:06;;;;;;;;;;;;;;;;;;1464889;40;19938;-42
2021/07/20 02:54:08;;;;;;;;;;;;;;;;;;1461950;40;19945;-41
2021/07/20 02:55:09;;;;;;;;;;;;;;;;;;1475079;40;19944;-41
2021/07/20 02:56:10;;;;;;;;;;;;;;;;;;1474332;40;20135;-43
2021/07/20 02:57:11;;;;;;;;;;;;;;;;;;1474599;40;19956;-42
2021/07/20 02:58:11;;;;;;;;;;;;;;;;;;1474876;40;19964;-42
2021/07/20 02:59:13;;;;;;;;;;;;;;;;;;1475428;40;19963;-40
2021/07/20 03:00:13;;;;;;;;;;;;;;;;;;1475363;40;19932;-41
2021/07/20 03:01:15;;;;;;;;;;;;;;;;;;1474425;40;19939;-42
2021/07/20 03:02:16;;;;;;;;;;;;;;;;;;1473047;40;21757;-39
2021/07/20 03:03:16;;;;;;;;;;;;;;;;;;1477822;40;20851;-43
2021/07/20 03:04:16;;;;;;;;;;;;;;;;;;1478869;40;19947;-43
2021/07/20 03:05:17;;;;;;;;;;;;;;;;;;1479092;40;20029;-41
2021/07/20 03:06:21;;;;;;;;;;;;;;;;;;1478521;40;20588;-41
2021/07/20 03:07:25;;;;;;;;;;;;;;;;;;1473320;40;20638;-44
2021/07/20 03:08:28;;;;;;;;;;;;;;;;;;1473179;40;19982;-43
2021/07/20 03:09:29;;;;;;;;;;;;;;;;;;1466557;40;20077;-39
2021/07/20 03:10:31;;;;;;;;;;;;;;;;;;1465585;40;20116;-43
2021/07/20 03:11:34;;;;;;;;;;;;;;;;;;1469739;40;20299;-38
2021/07/20 03:12:35;;;;;;;;;;;;;;;;;;1461646;40;19946;-43
2021/07/20 03:13:38;;;;;;;;;;;;;;;;;;1458234;40;19937;-45
2021/07/20 03:14:38;;;;;;;;;;;;;;;;;;1466364;40;19961;-44
2021/07/20 03:15:39;;;;;;;;;;;;;;;;;;1461789;40;19952;-44
2021/07/20 03:16:40;;;;;;;;;;;;;;;;;;1462433;40;20005;-44
2021/07/20 03:17:41;;;;;;;;;;;;;;;;;;1465078;40;20620;-40
2021/07/20 03:18:43;;;;;;;;;;;;;;;;;;1465308;40;20312;-43
2021/07/20 03:19:45;;;;;;;;;;;;;;;;;;1467515;40;19992;-44
2021/07/20 03:20:46;;;;;;;;;;;;;;;;;;1469483;40;19929;-42
2021/07/20 03:21:47;;;;;;;;;;;;;;;;;;1470168;40;19945;-41
2021/07/20 03:22:49;;;;;;;;;;;;;;;;;;1470018;40;19945;-41
2021/07/20 03:23:50;;;;;;;;;;;;;;;;;;1467037;40;20019;-44
2021/07/20 03:24:51;;;;;;;;;;;;;;;;;;1470194;40;19949;-42
2021/07/20 03:25:54;;;;;;;;;;;;;;;;;;1470237;40;20640;-44
2021/07/20 03:26:55;;;;;;;;;;;;;;;;;;1465865;40;19934;-44
2021/07/20 03:27:56;;;;;;;;;;;;;;;;;;1457592;40;20349;-41
2021/07/20 03:28:57;;;;;;;;;;;;;;;;;;1451284;40;19981;-43
2021/07/20 03:29:58;;;;;;;;;;;;;;;;;;1457768;40;20549;-41
2021/07/20 03:30:58;;;;;;;;;;;;;;;;;;1466067;40;21711;-44
2021/07/20 03:31:59;;;;;;;;;;;;;;;;;;1461827;40;19940;-43
2021/07/20 03:33:03;;;;;;;;;;;;;;;;;;1458378;40;20375;-43
2021/07/20 03:34:05;;;;;;;;;;;;;;;;;;1466214;40;20308;-39
2021/07/20 03:35:06;;;;;;;;;;;;;;;;;;1467913;40;19937;-41
2021/07/20 03:36:06;;;;;;;;;;;;;;;;;;1468048;40;19940;-46
2021/07/20 03:37:07;;;;;;;;;;;;;;;;;;1469491;40;19941;-45
2021/07/20 03:38:08;;;;;;;;;;;;;;;;;;1468018;40;19947;-41
2021/07/20 03:39:08;;;;;;;;;;;;;;;;;;1468584;40;21287;-43
2021/07/20 03:40:10;;;;;;;;;;;;;;;;;;1466932;40;19933;-44
2021/07/20 03:41:11;;;;;;;;;;;;;;;;;;1464988;40;19933;-43
2021/07/20 03:42:12;;;;;;;;;;;;;;;;;;1465800;40;20366;-41
2021/07/20 03:43:13;;;;;;;;;;;;;;;;;;1461416;40;20074;-42
2021/07/20 03:44:13;;;;;;;;;;;;;;;;;;1461804;40;19941;-43
2021/07/20 03:45:14;;;;;;;;;;;;;;;;;;1463338;40;20035;-39
2021/07/20 03:46:15;;;;;;;;;;;;;;;;;;1473032;40;20287;-43
2021/07/20 03:47:16;;;;;;;;;;;;;;;;;;1471184;40;20015;-41
2021/07/20 03:48:16;;;;;;;;;;;;;;;;;;1472202;40;20046;-43
2021/07/20 03:49:17;;;;;;;;;;;;;;;;;;1481642;40;20473;-44
2021/07/20 03:50:18;;;;;;;;;;;;;;;;;;1466355;40;20204;-43
2021/07/20 03:51:20;;;;;;;;;;;;;;;;;;1469905;40;20233;-39
2021/07/20 03:52:22;;;;;;;;;;;;;;;;;;1474590;40;20494;-39
2021/07/20 03:53:23;;;;;;;;;;;;;;;;;;1472718;40;20268;-42
2021/07/20 03:54:24;;;;;;;;;;;;;;;;;;1469989;40;20926;-38
2021/07/20 03:55:24;;;;;;;;;;;;;;;;;;1465961;40;21513;-42
2021/07/20 03:56:24;;;;;;;;;;;;;;;;;;1469804;40;19949;-46
2021/07/20 03:57:25;;;;;;;;;;;;;;;;;;1475110;40;20240;-40
2021/07/20 03:58:26;;;;;;;;;;;;;;;;;;1469775;40;20073;-44
2021/07/20 03:59:27;;;;;;;;;;;;;;;;;;1474176;40;20324;-43
2021/07/20 04:00:28;;;;;;;;;;;;;;;;;;1469977;40;20505;-48
2021/07/20 04:01:31;;;;;;;;;;;;;;;;;;1465970;40;20206;-39
2021/07/20 04:02:35;;;;;;;;;;;;;;;;;;1469685;40;21259;-43
2021/07/20 04:03:38;;;;;;;;;;;;;;;;;;1475342;40;19940;-40
2021/07/20 04:04:40;;;;;;;;;;;;;;;;;;1473985;40;20195;-43
2021/07/20 04:05:42;;;;;;;;;;;;;;;;;;1478151;40;21056;-43
2021/07/20 04:06:43;;;;;;;;;;;;;;;;;;1462360;40;20051;-42
2021/07/20 04:07:48;;;;;;;;;;;;;;;;;;1465709;40;21543;-42
2021/07/20 04:08:50;;;;;;;;;;;;;;;;;;1458738;40;19933;-44
2021/07/20 04:09:51;;;;;;;;;;;;;;;;;;1461465;40;20039;-43
2021/07/20 04:10:52;;;;;;;;;;;;;;;;;;1461262;40;21383;-44
2021/07/20 04:11:53;;;;;;;;;;;;;;;;;;1461885;40;20984;-42
2021/07/20 04:12:53;;;;;;;;;;;;;;;;;;1464942;40;19945;-46
2021/07/20 04:13:55;;;;;;;;;;;;;;;;;;1456425;40;21479;-41
2021/07/20 04:14:55;;;;;;;;;;;;;;;;;;1457698;40;19948;-43
2021/07/20 04:15:58;;;;;;;;;;;;;;;;;;1465874;40;20298;-43
2021/07/20 04:16:58;;;;;;;;;;;;;;;;;;1461957;40;19952;-40
2021/07/20 04:17:59;;;;;;;;;;;;;;;;;;1465848;40;20193;-40
2021/07/20 04:18:59;;;;;;;;;;;;;;;;;;1465791;40;20035;-39
2021/07/20 04:20:00;;;;;;;;;;;;;;;;;;1466002;40;20020;-42
2021/07/20 04:21:02;;;;;;;;;;;;;;;;;;1461977;40;20022;-42
2021/07/20 04:22:03;;;;;;;;;;;;;;;;;;1452897;40;20336;-42
2021/07/20 04:23:05;;;;;;;;;;;;;;;;;;1458034;40;19930;-42
2021/07/20 04:24:05;;;;;;;;;;;;;;;;;;1466823;40;20122;-40
2021/07/20 04:25:08;;;;;;;;;;;;;;;;;;1465689;40;19937;-43
2021/07/20 04:26:08;;;;;;;;;;;;;;;;;;1453113;40;20005;-43
2021/07/20 04:27:08;;;;;;;;;;;;;;;;;;1458203;40;20282;-39
2021/07/20 04:28:09;;;;;;;;;;;;;;;;;;1461451;40;20080;-44
2021/07/20 04:29:10;;;;;;;;;;;;;;;;;;1453568;40;20093;-42
2021/07/20 04:30:11;;;;;;;;;;;;;;;;;;1452331;40;20656;-41
2021/07/20 04:31:12;;;;;;;;;;;;;;;;;;1453832;40;19934;-43
2021/07/20 04:32:13;;;;;;;;;;;;;;;;;;1452580;40;20032;-46
2021/07/20 04:33:15;;;;;;;;;;;;;;;;;;1450424;40;20015;-43
2021/07/20 04:34:15;;;;;;;;;;;;;;;;;;1449790;40;20034;-43
2021/07/20 04:35:17;;;;;;;;;;;;;;;;;;1449897;40;20155;-43
2021/07/20 04:36:19;;;;;;;;;;;;;;;;;;1452578;40;20087;-39
2021/07/20 04:37:19;;;;;;;;;;;;;;;;;;1450302;40;20289;-42
2021/07/20 04:38:20;;;;;;;;;;;;;;;;;;1445700;40;19982;-43
2021/07/20 04:39:20;;;;;;;;;;;;;;;;;;1440806;41;20237;-39
2021/07/20 04:40:21;;;;;;;;;;;;;;;;;;1437684;41;20048;-40
2021/07/20 04:41:21;;;;;;;;;;;;;;;;;;1445816;40;20591;-44
2021/07/20 04:42:22;;;;;;;;;;;;;;;;;;1450336;40;19938;-43
2021/07/20 04:43:23;;;;;;;;;;;;;;;;;;1447533;40;20434;-39
2021/07/20 04:44:23;;;;;;;;;;;;;;;;;;1446004;40;20357;-39
2021/07/20 04:45:25;;;;;;;;;;;;;;;;;;1457053;40;19938;-42
2021/07/20 04:46:26;;;;;;;;;;;;;;;;;;1465634;40;19964;-42
2021/07/20 04:47:26;;;;;;;;;;;;;;;;;;1465513;40;20014;-52
2021/07/20 04:48:26;;;;;;;;;;;;;;;;;;1465728;40;20261;-41
2021/07/20 04:49:27;;;;;;;;;;;;;;;;;;1465550;40;19980;-39
2021/07/20 04:50:28;;;;;;;;;;;;;;;;;;1457574;40;20157;-42
2021/07/20 04:51:30;;;;;;;;;;;;;;;;;;1457529;40;19938;-43
2021/07/20 04:52:31;;;;;;;;;;;;;;;;;;1465628;40;19945;-43
2021/07/20 04:53:33;;;;;;;;;;;;;;;;;;1461648;40;19993;-42
2021/07/20 04:54:34;;;;;;;;;;;;;;;;;;1461857;40;21347;-42
2021/07/20 04:55:35;;;;;;;;;;;;;;;;;;1465383;40;20715;-42
2021/07/20 04:56:36;;;;;;;;;;;;;;;;;;1461746;40;19952;-46
2021/07/20 04:57:37;;;;;;;;;;;;;;;;;;1461375;40;19933;-41
2021/07/20 04:58:37;;;;;;;;;;;;;;;;;;1461853;40;21033;-40
2021/07/20 04:59:39;;;;;;;;;;;;;;;;;;1461331;40;19934;-42
2021/07/20 05:00:39;;;;;;;;;;;;;;;;;;1463250;40;21052;-38
2021/07/20 05:01:40;;;;;;;;;;;;;;;;;;1465574;40;19933;-40
2021/07/20 05:02:43;;;;;;;;;;;;;;;;;;1461454;40;20205;-42
2021/07/20 05:03:44;;;;;;;;;;;;;;;;;;1471004;40;20415;-43
2021/07/20 05:04:44;;;;;;;;;;;;;;;;;;1470315;40;21487;-43
2021/07/20 05:05:45;;;;;;;;;;;;;;;;;;1464471;40;19992;-43
2021/07/20 05:06:47;;;;;;;;;;;;;;;;;;1472633;40;20116;-46
2021/07/20 05:07:54;;;;;;;;;;;;;;;;;;1472949;40;20379;-40
2021/07/20 05:08:56;;;;;;;;;;;;;;;;;;1473729;40;20443;-44
2021/07/20 05:09:56;;;;;;;;;;;;;;;;;;1466352;40;19931;-43
2021/07/20 05:10:57;;;;;;;;;;;;;;;;;;1462596;40;19937;-43
2021/07/20 05:11:57;;;;;;;;;;;;;;;;;;1473120;40;20114;-41
2021/07/20 05:12:58;;;;;;;;;;;;;;;;;;1478004;40;19929;-41
2021/07/20 05:13:59;;;;;;;;;;;;;;;;;;1469630;40;20434;-44
2021/07/20 05:14:59;;;;;;;;;;;;;;;;;;1468879;40;20356;-41
2021/07/20 05:16:01;;;;;;;;;;;;;;;;;;1469527;40;20230;-46
2021/07/20 05:17:01;;;;;;;;;;;;;;;;;;1474727;40;20283;-43
2021/07/20 05:18:02;;;;;;;;;;;;;;;;;;1465297;40;19937;-44
2021/07/20 05:19:02;;;;;;;;;;;;;;;;;;1465782;40;19937;-40
2021/07/20 05:20:03;;;;;;;;;;;;;;;;;;1470571;40;19945;-49
2021/07/20 05:21:04;;;;;;;;;;;;;;;;;;1469703;40;19956;-44
2021/07/20 05:22:05;;;;;;;;;;;;;;;;;;1469636;40;19932;-45
2021/07/20 05:23:05;;;;;;;;;;;;;;;;;;1470121;40;20304;-42
2021/07/20 05:24:06;;;;;;;;;;;;;;;;;;1469741;40;19990;-41
2021/07/20 05:25:07;;;;;;;;;;;;;;;;;;1466880;40;19985;-43
2021/07/20 05:26:07;;;;;;;;;;;;;;;;;;1470870;40;20002;-41
2021/07/20 05:27:09;;;;;;;;;;;;;;;;;;1468982;40;20232;-43
2021/07/20 05:28:11;;;;;;;;;;;;;;;;;;1469698;40;20060;-45
2021/07/20 05:29:15;;;;;;;;;;;;;;;;;;1474832;40;20293;-43
2021/07/20 05:30:16;;;;;;;;;;;;;;;;;;1474726;40;20961;-43
2021/07/20 05:31:17;;;;;;;;;;;;;;;;;;1472669;40;21430;-41
2021/07/20 05:32:19;;;;;;;;;;;;;;;;;;1473062;40;19937;-42
2021/07/20 05:33:19;;;;;;;;;;;;;;;;;;1461433;40;19949;-41
2021/07/20 05:34:20;;;;;;;;;;;;;;;;;;1465546;40;21464;-40
2021/07/20 05:35:20;;;;;;;;;;;;;;;;;;1474109;40;20034;-42
2021/07/20 05:36:21;;;;;;;;;;;;;;;;;;1474230;40;20220;-45
2021/07/20 05:37:21;;;;;;;;;;;;;;;;;;1474435;40;19989;-43
2021/07/20 05:38:22;;;;;;;;;;;;;;;;;;1474499;40;19933;-42
2021/07/20 05:39:24;;;;;;;;;;;;;;;;;;1469399;40;20214;-41
2021/07/20 05:40:25;;;;;;;;;;;;;;;;;;1456040;40;20149;-42
2021/07/20 05:41:25;;;;;;;;;;;;;;;;;;1466070;40;20217;-39
2021/07/20 05:42:27;;;;;;;;;;;;;;;;;;1469745;40;20051;-39
2021/07/20 05:43:29;;;;;;;;;;;;;;;;;;1470140;40;20290;-42
2021/07/20 05:44:31;;;;;;;;;;;;;;;;;;1466193;40;20193;-41
2021/07/20 05:45:32;;;;;;;;;;;;;;;;;;1474354;40;20142;-42
2021/07/20 05:46:33;;;;;;;;;;;;;;;;;;1478602;40;20163;-40
2021/07/20 05:47:34;;;;;;;;;;;;;;;;;;1475434;40;20015;-41
2021/07/20 05:48:35;;;;;;;;;;;;;;;;;;1478536;40;20464;-41
2021/07/20 05:49:35;;;;;;;;;;;;;;;;;;1478306;40;20526;-44
2021/07/20 05:50:40;;;;;;;;;;;;;;;;;;1474451;40;19932;-42
2021/07/20 05:51:41;;;;;;;;;;;;;;;;;;1474148;40;19991;-39
2021/07/20 05:52:44;;;;;;;;;;;;;;;;;;1475027;40;20306;-42
2021/07/20 05:53:44;;;;;;;;;;;;;;;;;;1474379;40;19980;-42
2021/07/20 05:54:46;;;;;;;;;;;;;;;;;;1466604;40;20051;-43
2021/07/20 05:55:51;;;;;;;;;;;;;;;;;;1462420;40;19937;-40
2021/07/20 05:56:52;;;;;;;;;;;;;;;;;;1479283;40;20044;-41
2021/07/20 05:57:53;;;;;;;;;;;;;;;;;;1479166;40;20243;-40
2021/07/20 05:58:53;;;;;;;;;;;;;;;;;;1471088;40;20026;-43
2021/07/20 05:59:54;;;;;;;;;;;;;;;;;;1474279;40;19955;-41
2021/07/20 06:00:57;;;;;;;;;;;;;;;;;;1470253;40;19965;-41
2021/07/20 06:01:58;;;;;;;;;;;;;;;;;;1467367;40;20320;-45
2021/07/20 06:02:59;;;;;;;;;;;;;;;;;;1470517;40;19964;-41
2021/07/20 06:04:00;;;;;;;;;;;;;;;;;;1470984;40;19940;-43
2021/07/20 06:05:01;;;;;;;;;;;;;;;;;;1466761;40;20313;-43
2021/07/20 06:06:02;;;;;;;;;;;;;;;;;;1466497;40;19937;-42
2021/07/20 06:07:04;;;;;;;;;;;;;;;;;;1471010;40;19941;-43
2021/07/20 06:08:04;;;;;;;;;;;;;;;;;;1470080;40;20046;-42
2021/07/20 06:09:06;;;;;;;;;;;;;;;;;;1469804;40;19966;-50
2021/07/20 06:10:07;;;;;;;;;;;;;;;;;;1469138;40;19937;-44
2021/07/20 06:11:08;;;;;;;;;;;;;;;;;;1468264;40;19937;-46
2021/07/20 06:12:08;;;;;;;;;;;;;;;;;;1470098;40;19933;-39
2021/07/20 06:13:10;;;;;;;;;;;;;;;;;;1467679;40;19928;-43
2021/07/20 06:14:11;;;;;;;;;;;;;;;;;;1472505;40;19953;-44
2021/07/20 06:15:12;;;;;;;;;;;;;;;;;;1470407;40;19967;-45
2021/07/20 06:16:12;;;;;;;;;;;;;;;;;;1466155;40;19940;-40
2021/07/20 06:17:12;;;;;;;;;;;;;;;;;;1464725;40;20910;-46
2021/07/20 06:18:13;;;;;;;;;;;;;;;;;;1465038;40;20010;-41
2021/07/20 06:19:13;;;;;;;;;;;;;;;;;;1462088;40;20359;-40
2021/07/20 06:20:14;;;;;;;;;;;;;;;;;;1458785;40;20403;-45
2021/07/20 06:21:15;;;;;;;;;;;;;;;;;;1457679;40;20043;-51
2021/07/20 06:22:16;;;;;;;;;;;;;;;;;;1453859;40;19966;-42
2021/07/20 06:23:17;;;;;;;;;;;;;;;;;;1457836;40;19938;-42
2021/07/20 06:24:18;;;;;;;;;;;;;;;;;;1458046;40;20181;-40
2021/07/20 06:25:19;;;;;;;;;;;;;;;;;;1461771;40;19983;-41
2021/07/20 06:26:21;;;;;;;;;;;;;;;;;;1455033;40;20546;-42
2021/07/20 06:27:21;;;;;;;;;;;;;;;;;;1457844;40;20236;-39
2021/07/20 06:28:24;;;;;;;;;;;;;;;;;;1455222;40;19965;-39
2021/07/20 06:29:25;;;;;;;;;;;;;;;;;;1463410;40;20319;-41
2021/07/20 06:30:26;;;;;;;;;;;;;;;;;;1465500;40;19984;-39
2021/07/20 06:31:26;;;;;;;;;;;;;;;;;;1465617;40;19956;-40
2021/07/20 06:32:27;;;;;;;;;;;;;;;;;;1461637;40;20138;-39
2021/07/20 06:33:27;;;;;;;;;;;;;;;;;;1456618;40;20041;-40
2021/07/20 06:34:28;;;;;;;;;;;;;;;;;;1464560;40;20012;-43
2021/07/20 06:35:29;;;;;;;;;;;;;;;;;;1454188;40;20089;-43
2021/07/20 06:36:29;;;;;;;;;;;;;;;;;;1453968;40;19980;-43
2021/07/20 06:37:29;;;;;;;;;;;;;;;;;;1453838;40;19966;-47
2021/07/20 06:38:31;;;;;;;;;;;;;;;;;;1456995;40;20169;-42
2021/07/20 06:39:32;;;;;;;;;;;;;;;;;;1462108;40;19933;-43
2021/07/20 06:40:33;;;;;;;;;;;;;;;;;;1461867;40;20445;-42
2021/07/20 06:41:34;;;;;;;;;;;;;;;;;;1458380;40;21387;-42
2021/07/20 06:42:35;;;;;;;;;;;;;;;;;;1455911;40;22576;-47
2021/07/20 06:43:36;;;;;;;;;;;;;;;;;;1461954;40;19937;-42
2021/07/20 06:44:36;;;;;;;;;;;;;;;;;;1463239;40;19948;-41
2021/07/20 06:45:38;;;;;;;;;;;;;;;;;;1469242;40;20252;-39
2021/07/20 06:46:38;;;;;;;;;;;;;;;;;;1469662;40;20374;-40
2021/07/20 06:47:56;;;;;;;;;;;;;;;;;;1470170;40;20158;-40
2021/07/20 06:48:57;;;;;;;;;;;;;;;;;;1462563;40;20062;-45
2021/07/20 06:50:00;;;;;;;;;;;;;;;;;;1465860;40;19961;-42
2021/07/20 06:51:01;;;;;;;;;;;;;;;;;;1473584;40;19982;-42
2021/07/20 06:52:04;;;;;;;;;;;;;;;;;;1469941;40;20311;-43
2021/07/20 06:53:04;;;;;;;;;;;;;;;;;;1469765;40;20277;-43
2021/07/20 06:54:04;;;;;;;;;;;;;;;;;;1469484;40;19945;-42
2021/07/20 06:55:06;;;;;;;;;;;;;;;;;;1466179;40;20242;-44
2021/07/20 06:56:07;;;;;;;;;;;;;;;;;;1469175;40;19973;-44
2021/07/20 06:57:10;;;;;;;;;;;;;;;;;;1472331;40;19952;-43
2021/07/20 06:58:11;;;;;;;;;;;;;;;;;;1466285;40;20024;-46
2021/07/20 06:59:12;;;;;;;;;;;;;;;;;;1459116;40;20288;-42
2021/07/20 07:00:15;;;;;;;;;;;;;;;;;;1469527;40;19940;-44
2021/07/20 07:01:17;;;;;;;;;;;;;;;;;;1465868;40;20380;-44
2021/07/20 07:02:22;;;;;;;;;;;;;;;;;;1461831;40;19934;-44
2021/07/20 07:03:26;;;;;;;;;;;;;;;;;;1470417;40;20496;-40
2021/07/20 07:04:31;;;;;;;;;;;;;;;;;;1470912;40;19992;-40
2021/07/20 07:05:32;;;;;;;;;;;;;;;;;;1471210;40;20382;-40